| time (UTC) | temp F | wind direction | speed MPH | gust MPH | rain 1hr in | rain 24hr in | rain mn in | humidity % | barometer mb |
| 20260508002153 | 52 | 266 | 0.0 | 3.0 | 0.00 | 0.07 | 0.01 | 95 | 1015.7 |
| 20260508001653 | 52 | 266 | 0.0 | 3.0 | 0.00 | 0.07 | 0.01 | 95 | 1015.6 |
| 20260508001152 | 52 | 266 | 1.0 | 1.0 | 0.00 | 0.07 | 0.01 | 95 | 1015.8 |
| 20260508000652 | 53 | 266 | 0.0 | 0.0 | 0.00 | 0.07 | 0.01 | 95 | 1015.7 |
| 20260508000152 | 53 | 266 | 0.0 | 0.0 | 0.00 | 0.07 | 0.01 | 95 | 1015.6 |
| 20260507235653 | 52 | 266 | 0.0 | 0.0 | 0.00 | 0.07 | 0.01 | 95 | 1015.7 |
| 20260507235152 | 52 | 266 | 0.0 | 0.0 | 0.00 | 0.07 | 0.01 | 95 | 1015.7 |
| 20260507234653 | 52 | 266 | 0.0 | 0.0 | 0.00 | 0.07 | 0.01 | 95 | 1015.7 |
| 20260507234215 | 52 | 266 | 0.0 | 1.0 | 0.00 | 0.07 | 0.01 | 95 | 1015.5 |
| 20260507234205 | 52 | 266 | 0.0 | 1.0 | 0.00 | 0.07 | 0.01 | 95 | 1015.5 |
| 20260507233153 | 52 | 266 | 0.0 | 1.0 | 0.00 | 0.07 | 0.01 | 95 | 1015.5 |
| 20260507232938 | 52 | 266 | 0.0 | 1.0 | 0.00 | 0.07 | 0.01 | 95 | 1015.5 |
| 20260507232153 | 52 | 266 | 0.0 | 0.0 | 0.00 | 0.07 | 0.01 | 95 | 1015.5 |
| 20260507231652 | 52 | 266 | 0.0 | 0.0 | 0.00 | 0.07 | 0.01 | 95 | 1015.4 |
| 20260507231153 | 52 | 266 | 0.0 | 1.0 | 0.00 | 0.07 | 0.01 | 95 | 1015.4 |
| 20260507230653 | 53 | 266 | 0.0 | 2.0 | 0.00 | 0.07 | 0.01 | 95 | 1015.4 |
| 20260507230153 | 53 | 266 | 1.0 | 2.0 | 0.01 | 0.07 | 0.01 | 95 | 1015.4 |
| 20260507225653 | 53 | 266 | 0.0 | 0.0 | 0.01 | 0.07 | 0.01 | 95 | 1015.6 |
| 20260507225152 | 53 | 266 | 0.0 | 0.0 | 0.02 | 0.07 | 0.01 | 96 | 1015.6 |
| 20260507224651 | 53 | 266 | 0.0 | 0.0 | 0.03 | 0.07 | 0.01 | 96 | 1015.5 |
| 20260507224143 | 53 | 266 | 0.0 | 0.0 | 0.04 | 0.07 | 0.01 | 96 | 1015.6 |
| 20260507223643 | 53 | 266 | 0.0 | 0.0 | 0.05 | 0.07 | 0.01 | 96 | 1015.8 |
| 20260507223145 | 53 | 266 | 0.0 | 1.0 | 0.05 | 0.07 | 0.01 | 96 | 1015.8 |
| 20260507222645 | 53 | 266 | 0.0 | 2.0 | 0.05 | 0.07 | 0.01 | 96 | 1015.9 |
| 20260507222424 | 53 | 266 | 0.0 | 2.0 | 0.07 | 0.07 | 0.01 | 96 | 1015.6 |
| 20260507221644 | 53 | 266 | 0.0 | 2.0 | 0.07 | 0.07 | 0.01 | 96 | 1015.9 |
| 20260507221144 | 53 | 266 | 1.0 | 2.0 | 0.07 | 0.07 | 0.01 | 96 | 1015.9 |
| 20260507220643 | 53 | 266 | 2.0 | 2.0 | 0.07 | 0.07 | 0.01 | 96 | 1015.9 |
| 20260507220144 | 54 | 230 | 1.0 | 1.0 | 0.06 | 0.06 | 0.00 | 96 | 1015.9 |
| 20260507215644 | 54 | 229 | 0.0 | 0.0 | 0.06 | 0.06 | 0.06 | 96 | 1015.8 |
| 20260507215143 | 54 | 229 | 0.0 | 2.0 | 0.05 | 0.05 | 0.05 | 96 | 1015.4 |
| 20260507214643 | 54 | 229 | 0.0 | 2.0 | 0.04 | 0.04 | 0.04 | 96 | 1015.6 |
| 20260507214210 | 54 | 229 | 0.0 | 0.0 | 0.02 | 0.02 | 0.02 | 96 | 1015.6 |
| 20260507214158 | 54 | 229 | 0.0 | 0.0 | 0.03 | 0.03 | 0.03 | 96 | 1015.6 |
| 20260507213420 | 54 | 230 | 0.0 | 1.0 | 0.02 | 0.02 | 0.02 | 95 | 1015.7 |
| 20260507212643 | 55 | 230 | 0.0 | 2.0 | 0.02 | 0.02 | 0.02 | 94 | 1015.5 |
| 20260507212142 | 55 | 230 | 1.0 | 2.0 | 0.00 | 0.00 | 0.00 | 93 | 1015.7 |
| 20260507211925 | 55 | 135 | 0.0 | 1.0 | 0.00 | 0.00 | 0.00 | 91 | 1015.4 |
| 20260507211143 | 56 | 135 | 0.0 | 1.0 | 0.00 | 0.00 | 0.00 | 90 | 1015.4 |
| 20260507210642 | 56 | 135 | 0.0 | 2.0 | 0.00 | 0.00 | 0.00 | 89 | 1015.2 |
| 20260507210143 | 56 | 135 | 1.0 | 3.0 | 0.00 | 0.00 | 0.00 | 89 | 1015.3 |
| 20260507205928 | 56 | 246 | 2.0 | 3.0 | 0.00 | 0.00 | 0.00 | 88 | 1015.2 |
| 20260507205430 | 56 | 105 | 0.0 | 0.0 | 0.00 | 0.00 | 0.00 | 87 | 1015.2 |
| 20260507204645 | 55 | 105 | 0.0 | 0.0 | 0.00 | 0.00 | 0.00 | 87 | 1015.0 |
| 20260507204418 | 55 | 105 | 0.0 | 0.0 | 0.00 | 0.00 | 0.00 | 87 | 1015.1 |
| 20260507203643 | 56 | 105 | 0.0 | 1.0 | 0.00 | 0.00 | 0.00 | 87 | 1015.1 |
| 20260507203143 | 55 | 105 | 0.0 | 1.0 | 0.00 | 0.00 | 0.00 | 86 | 1014.9 |
| 20260507202930 | 55 | 105 | 0.0 | 1.0 | 0.00 | 0.00 | 0.00 | 87 | 1014.8 |
| 20260507202142 | 55 | 105 | 0.0 | 1.0 | 0.00 | 0.00 | 0.00 | 87 | 1014.8 |
| 20260507201642 | 55 | 105 | 0.0 | 1.0 | 0.00 | 0.00 | 0.00 | 86 | 1014.8 |
| 20260507201418 | 56 | 105 | 0.0 | 0.0 | 0.00 | 0.00 | 0.00 | 86 | 1014.6 |
| 20260507200643 | 56 | 105 | 0.0 | 0.0 | 0.00 | 0.00 | 0.00 | 85 | 1014.8 |
| 20260507200419 | 56 | 105 | 0.0 | 1.0 | 0.00 | 0.00 | 0.00 | 85 | 1014.7 |
| 20260507195643 | 56 | 105 | 0.0 | 2.0 | 0.00 | 0.00 | 0.00 | 84 | 1014.5 |
| 20260507195143 | 56 | 105 | 1.0 | 2.0 | 0.00 | 0.00 | 0.00 | 82 | 1014.5 |
| 20260507194642 | 56 | 105 | 0.0 | 0.0 | 0.00 | 0.00 | 0.00 | 83 | 1014.5 |
| 20260507194142 | 56 | 105 | 0.0 | 0.0 | 0.00 | 0.00 | 0.00 | 86 | 1014.3 |
| 20260507193643 | 55 | 105 | 0.0 | 0.0 | 0.00 | 0.00 | 0.00 | 85 | 1014.4 |
| 20260507193145 | 55 | 105 | 0.0 | 3.0 | 0.00 | 0.00 | 0.00 | 85 | 1014.4 |
| 20260507192645 | 55 | 105 | 1.0 | 3.0 | 0.00 | 0.00 | 0.00 | 85 | 1014.4 |
| 20260507192144 | 55 | 100 | 0.0 | 0.0 | 0.00 | 0.00 | 0.00 | 84 | 1014.3 |
| 20260507191645 | 55 | 100 | 0.0 | 0.0 | 0.00 | 0.00 | 0.00 | 84 | 1014.2 |
| 20260507191145 | 55 | 100 | 0.0 | 1.0 | 0.00 | 0.00 | 0.00 | 85 | 1014.2 |
| 20260507190645 | 55 | 88 | 0.0 | 2.0 | 0.00 | 0.00 | 0.00 | 84 | 1014.2 |
| 20260507190145 | 55 | 88 | 2.0 | 2.0 | 0.00 | 0.00 | 0.00 | 83 | 1014.1 |
| 20260507185645 | 55 | 63 | 0.0 | 2.0 | 0.00 | 0.00 | 0.00 | 83 | 1014.1 |
| 20260507185148 | 55 | 97 | 0.0 | 2.0 | 0.00 | 0.00 | 0.00 | 83 | 1014.0 |
| 20260507184645 | 55 | 99 | 2.0 | 3.0 | 0.00 | 0.00 | 0.00 | 83 | 1013.6 |
| 20260507184145 | 55 | 94 | 2.0 | 3.0 | 0.00 | 0.00 | 0.00 | 84 | 1013.4 |
| 20260507183645 | 55 | 101 | 2.0 | 3.0 | 0.00 | 0.00 | 0.00 | 83 | 1013.5 |
| 20260507183145 | 55 | 94 | 3.0 | 3.0 | 0.00 | 0.00 | 0.00 | 83 | 1013.3 |
| 20260507182644 | 55 | 98 | 2.0 | 3.0 | 0.00 | 0.00 | 0.00 | 83 | 1013.2 |
| 20260507182419 | 55 | 104 | 3.0 | 3.0 | 0.00 | 0.00 | 0.00 | 83 | 1013.4 |
| 20260507181644 | 55 | 106 | 2.0 | 3.0 | 0.00 | 0.00 | 0.00 | 82 | 1013.1 |
| 20260507181145 | 55 | 99 | 2.0 | 3.0 | 0.00 | 0.00 | 0.00 | 82 | 1013.3 |
| 20260507180935 | 55 | 102 | 3.0 | 3.0 | 0.00 | 0.00 | 0.00 | 82 | 1013.1 |
| 20260507180144 | 56 | 89 | 3.0 | 3.0 | 0.00 | 0.00 | 0.00 | 81 | 1012.9 |
| 20260507175645 | 56 | 104 | 3.0 | 3.0 | 0.00 | 0.00 | 0.00 | 81 | 1012.8 |
| 20260507175419 | 57 | 117 | 2.0 | 3.0 | 0.00 | 0.00 | 0.00 | 80 | 1012.9 |
| 20260507174645 | 58 | 107 | 2.0 | 3.0 | 0.00 | 0.00 | 0.00 | 78 | 1012.6 |
| 20260507174416 | 58 | 105 | 3.0 | 3.0 | 0.00 | 0.00 | 0.00 | 77 | 1012.7 |
| 20260507173645 | 59 | 93 | 2.0 | 2.0 | 0.00 | 0.00 | 0.00 | 76 | 1012.6 |
| 20260507173144 | 60 | 116 | 2.0 | 2.0 | 0.00 | 0.00 | 0.00 | 74 | 1012.5 |
| 20260507172645 | 60 | 121 | 1.0 | 2.0 | 0.00 | 0.00 | 0.00 | 72 | 1012.5 |
| 20260507172422 | 62 | 158 | 1.0 | 3.0 | 0.00 | 0.00 | 0.00 | 71 | 1012.5 |
| 20260507171929 | 63 | 66 | 2.0 | 4.0 | 0.00 | 0.00 | 0.00 | 61 | 1012.5 |
| 20260507171145 | 64 | 87 | 0.0 | 4.0 | 0.00 | 0.00 | 0.00 | 65 | 1012.5 |
| 20260507170646 | 63 | 112 | 1.0 | 3.0 | 0.00 | 0.00 | 0.00 | 68 | 1012.4 |
| 20260507170145 | 64 | 93 | 1.0 | 2.0 | 0.00 | 0.00 | 0.00 | 65 | 1012.4 |
| 20260507165644 | 65 | 84 | 1.0 | 7.0 | 0.00 | 0.00 | 0.00 | 60 | 1012.2 |
| 20260507165145 | 66 | 78 | 4.0 | 7.0 | 0.00 | 0.00 | 0.00 | 59 | 1012.4 |
| 20260507164645 | 66 | 106 | 1.0 | 10.0 | 0.00 | 0.00 | 0.00 | 60 | 1012.3 |
| 20260507164145 | 65 | 244 | 1.0 | 10.0 | 0.00 | 0.00 | 0.00 | 60 | 1012.3 |
| 20260507163644 | 65 | 77 | 6.0 | 14.0 | 0.00 | 0.00 | 0.00 | 60 | 1012.3 |
| 20260507163418 | 65 | 135 | 0.0 | 14.0 | 0.00 | 0.00 | 0.00 | 61 | 1012.3 |
| 20260507162645 | 67 | 94 | 2.0 | 6.0 | 0.00 | 0.00 | 0.00 | 59 | 1012.2 |
| 20260507162144 | 67 | 171 | 1.0 | 6.0 | 0.00 | 0.00 | 0.00 | 58 | 1012.1 |
| 20260507161645 | 66 | 67 | 2.0 | 13.0 | 0.00 | 0.00 | 0.00 | 59 | 1012.2 |
| 20260507161144 | 65 | 51 | 0.0 | 13.0 | 0.00 | 0.00 | 0.00 | 60 | 1012.4 |
| 20260507160644 | 66 | 30 | 2.0 | 7.0 | 0.00 | 0.00 | 0.00 | 60 | 1012.4 |
| 20260507160144 | 65 | 136 | 2.0 | 13.0 | 0.00 | 0.00 | 0.00 | 61 | 1012.4 |
| 20260507155644 | 66 | 95 | 7.0 | 13.0 | 0.00 | 0.00 | 0.00 | 61 | 1012.3 |
| 20260507155145 | 66 | 296 | 1.0 | 6.0 | 0.00 | 0.00 | 0.00 | 60 | 1012.4 |
| 20260507154646 | 65 | 104 | 0.0 | 4.0 | 0.00 | 0.00 | 0.00 | 60 | 1012.3 |
| 20260507154145 | 64 | 35 | 0.0 | 6.0 | 0.00 | 0.00 | 0.00 | 62 | 1012.3 |
| 20260507153644 | 64 | 247 | 1.0 | 6.0 | 0.00 | 0.00 | 0.00 | 61 | 1012.5 |
| 20260507153419 | 64 | 96 | 0.0 | 8.0 | 0.00 | 0.00 | 0.00 | 61 | 1012.5 |
| 20260507152712 | 64 | 59 | 4.0 | 6.0 | 0.00 | 0.00 | 0.00 | 61 | 1012.4 |
| 20260507152655 | 64 | 95 | 0.0 | 8.0 | 0.00 | 0.00 | 0.00 | 61 | 1012.4 |
| 20260507151643 | 64 | 105 | 2.0 | 7.0 | 0.00 | 0.00 | 0.00 | 63 | 1012.6 |
| 20260507151143 | 64 | 40 | 1.0 | 7.0 | 0.00 | 0.00 | 0.00 | 61 | 1012.5 |
| 20260507150720 | 64 | 341 | 1.0 | 7.0 | 0.00 | 0.00 | 0.00 | 62 | 1012.4 |
| 20260507150655 | 64 | 95 | 2.0 | 7.0 | 0.00 | 0.00 | 0.00 | 62 | 1012.4 |
| 20260507145630 | 64 | 19 | 2.0 | 6.0 | 0.00 | 0.00 | 0.00 | 62 | 1012.8 |
| 20260507145126 | 64 | 55 | 4.0 | 7.0 | 0.00 | 0.00 | 0.00 | 62 | 1012.6 |
| 20260507144622 | 64 | 306 | 4.0 | 8.0 | 0.00 | 0.00 | 0.00 | 60 | 1012.6 |
| 20260507144119 | 65 | 306 | 5.0 | 9.0 | 0.00 | 0.00 | 0.00 | 59 | 1012.7 |
| 20260507143617 | 64 | 55 | 4.0 | 9.0 | 0.00 | 0.00 | 0.00 | 61 | 1012.7 |
| 20260507143109 | 64 | 55 | 2.0 | 8.0 | 0.00 | 0.00 | 0.00 | 62 | 1012.7 |
| 20260507142603 | 65 | 47 | 1.0 | 6.0 | 0.00 | 0.00 | 0.00 | 62 | 1012.5 |
| 20260507142103 | 65 | 78 | 3.0 | 4.0 | 0.00 | 0.00 | 0.00 | 61 | 1012.5 |
| 20260507141600 | 65 | 29 | 0.0 | 4.0 | 0.00 | 0.00 | 0.00 | 61 | 1012.6 |
| 20260507141336 | 65 | 330 | 2.0 | 8.0 | 0.00 | 0.00 | 0.00 | 60 | 1012.6 |
| 20260507140829 | 65 | 30 | 4.0 | 8.0 | 0.00 | 0.00 | 0.00 | 60 | 1012.6 |
| 20260507140110 | 65 | 92 | 3.0 | 8.0 | 0.00 | 0.00 | 0.00 | 61 | 1012.6 |
| 20260507135554 | 65 | 70 | 2.0 | 7.0 | 0.00 | 0.00 | 0.00 | 61 | 1012.6 |
| 20260507135056 | 65 | 73 | 3.0 | 9.0 | 0.00 | 0.00 | 0.00 | 60 | 1012.5 |
| 20260507134553 | 65 | 65 | 5.0 | 9.0 | 0.00 | 0.00 | 0.00 | 60 | 1012.4 |
| 20260507134057 | 66 | 324 | 4.0 | 7.0 | 0.00 | 0.00 | 0.00 | 59 | 1012.8 |
| 20260507133619 | 65 | 68 | 3.0 | 11.0 | 0.00 | 0.00 | 0.00 | 60 | 1012.5 |
| 20260507133610 | 65 | 141 | 5.0 | 11.0 | 0.00 | 0.00 | 0.00 | 60 | 1012.6 |
| 20260507132554 | 65 | 297 | 4.0 | 8.0 | 0.00 | 0.00 | 0.00 | 61 | 1012.5 |
| 20260507132057 | 66 | 330 | 3.0 | 9.0 | 0.00 | 0.00 | 0.00 | 60 | 1012.5 |
| 20260507131843 | 66 | 89 | 4.0 | 9.0 | 0.00 | 0.00 | 0.00 | 62 | 1012.6 |
| 20260507131057 | 66 | 85 | 3.0 | 7.0 | 0.00 | 0.00 | 0.00 | 61 | 1012.4 |
| 20260507130554 | 66 | 100 | 4.0 | 14.0 | 0.00 | 0.00 | 0.00 | 62 | 1012.6 |
| 20260507130110 | 66 | 101 | 2.0 | 14.0 | 0.00 | 0.00 | 0.00 | 63 | 1012.5 |
| 20260507125554 | 66 | 53 | 6.0 | 11.0 | 0.00 | 0.00 | 0.00 | 63 | 1012.8 |
| 20260507125057 | 66 | 15 | 2.0 | 11.0 | 0.00 | 0.00 | 0.00 | 63 | 1012.7 |
| 20260507124554 | 67 | 315 | 6.0 | 11.0 | 0.00 | 0.00 | 0.00 | 64 | 1012.6 |
| 20260507124335 | 67 | 253 | 1.0 | 6.0 | 0.00 | 0.00 | 0.00 | 66 | 1012.5 |
| 20260507123554 | 65 | 132 | 2.0 | 9.0 | 0.00 | 0.00 | 0.00 | 70 | 1012.6 |
| 20260507123057 | 65 | 114 | 7.0 | 9.0 | 0.00 | 0.00 | 0.00 | 74 | 1012.5 |
| 20260507122554 | 64 | 117 | 2.0 | 8.0 | 0.00 | 0.00 | 0.00 | 74 | 1012.5 |
| 20260507122057 | 64 | 101 | 4.0 | 10.0 | 0.00 | 0.00 | 0.00 | 74 | 1012.5 |
| 20260507121554 | 65 | 111 | 4.0 | 10.0 | 0.00 | 0.00 | 0.00 | 73 | 1012.6 |
| 20260507121100 | 64 | 112 | 6.0 | 9.0 | 0.00 | 0.00 | 0.00 | 73 | 1012.7 |
| 20260507120828 | 64 | 95 | 4.0 | 9.0 | 0.00 | 0.00 | 0.00 | 76 | 1012.5 |
| 20260507120110 | 64 | 108 | 6.0 | 9.0 | 0.00 | 0.00 | 0.00 | 77 | 1012.7 |
| 20260507115555 | 64 | 111 | 4.0 | 9.0 | 0.00 | 0.00 | 0.00 | 75 | 1012.8 |
| 20260507115058 | 63 | 96 | 4.0 | 7.0 | 0.00 | 0.00 | 0.00 | 74 | 1012.9 |
| 20260507114556 | 64 | 129 | 1.0 | 3.0 | 0.00 | 0.00 | 0.00 | 74 | 1012.7 |
| 20260507114058 | 64 | 60 | 0.0 | 3.0 | 0.00 | 0.00 | 0.00 | 73 | 1012.8 |
| 20260507113557 | 64 | 89 | 1.0 | 6.0 | 0.00 | 0.00 | 0.00 | 73 | 1012.9 |
| 20260507113058 | 64 | 358 | 0.0 | 6.0 | 0.00 | 0.00 | 0.00 | 73 | 1012.9 |
| 20260507112554 | 64 | 93 | 2.0 | 6.0 | 0.00 | 0.00 | 0.00 | 73 | 1013.0 |
| 20260507112058 | 64 | 52 | 2.0 | 7.0 | 0.00 | 0.00 | 0.00 | 73 | 1012.9 |
| 20260507111556 | 64 | 37 | 0.0 | 8.0 | 0.00 | 0.00 | 0.00 | 73 | 1012.9 |
| 20260507111149 | 64 | 276 | 3.0 | 9.0 | 0.00 | 0.00 | 0.00 | 72 | 1013.0 |
| 20260507111129 | 64 | 19 | 3.0 | 9.0 | 0.00 | 0.00 | 0.00 | 72 | 1012.8 |
| 20260507110106 | 64 | 41 | 5.0 | 9.0 | 0.00 | 0.00 | 0.00 | 72 | 1012.9 |
| 20260507105554 | 64 | 50 | 1.0 | 9.0 | 0.00 | 0.00 | 0.00 | 72 | 1012.9 |
| 20260507105056 | 64 | 329 | 7.0 | 9.0 | 0.00 | 0.00 | 0.00 | 71 | 1012.9 |
| 20260507104555 | 64 | 309 | 1.0 | 10.0 | 0.00 | 0.00 | 0.00 | 70 | 1012.6 |
| 20260507104058 | 64 | 80 | 3.0 | 10.0 | 0.00 | 0.00 | 0.00 | 70 | 1012.5 |
| 20260507103555 | 65 | 297 | 1.0 | 10.0 | 0.00 | 0.00 | 0.00 | 68 | 1012.6 |
| 20260507103058 | 65 | 332 | 7.0 | 10.0 | 0.00 | 0.00 | 0.00 | 68 | 1012.6 |
| 20260507102553 | 65 | 231 | 2.0 | 10.0 | 0.00 | 0.00 | 0.00 | 67 | 1012.7 |
| 20260507102104 | 66 | 283 | 6.0 | 8.0 | 0.00 | 0.00 | 0.00 | 66 | 1012.6 |
| 20260507101557 | 66 | 53 | 1.0 | 4.0 | 0.00 | 0.00 | 0.00 | 65 | 1012.6 |
| 20260507101052 | 66 | 65 | 3.0 | 8.0 | 0.00 | 0.00 | 0.00 | 65 | 1012.4 |
| 20260507100552 | 66 | 329 | 3.0 | 8.0 | 0.00 | 0.00 | 0.00 | 66 | 1012.4 |
| 20260507100052 | 66 | 65 | 4.0 | 6.0 | 0.00 | 0.00 | 0.00 | 68 | 1012.3 |
| 20260507095552 | 66 | 351 | 2.0 | 6.0 | 0.00 | 0.00 | 0.00 | 66 | 1012.3 |
| 20260507095334 | 66 | 74 | 2.0 | 11.0 | 0.00 | 0.00 | 0.00 | 68 | 1012.3 |
| 20260507094551 | 65 | 80 | 3.0 | 11.0 | 0.00 | 0.00 | 0.00 | 67 | 1012.2 |
| 20260507094052 | 66 | 326 | 3.0 | 8.0 | 0.00 | 0.00 | 0.00 | 68 | 1012.3 |
| 20260507093555 | 67 | 70 | 4.0 | 8.0 | 0.00 | 0.00 | 0.00 | 66 | 1012.2 |
| 20260507093055 | 67 | 138 | 2.0 | 8.0 | 0.00 | 0.00 | 0.00 | 65 | 1012.3 |
| 20260507092555 | 66 | 29 | 0.0 | 8.0 | 0.00 | 0.00 | 0.00 | 68 | 1012.1 |
| 20260507092055 | 66 | 93 | 4.0 | 7.0 | 0.00 | 0.00 | 0.00 | 67 | 1012.1 |
| 20260507091542 | 65 | 54 | 2.0 | 10.0 | 0.00 | 0.00 | 0.00 | 69 | 1012.2 |
| 20260507091042 | 64 | 29 | 4.0 | 10.0 | 0.00 | 0.00 | 0.00 | 70 | 1012.3 |
| 20260507090545 | 65 | 88 | 2.0 | 7.0 | 0.00 | 0.00 | 0.00 | 70 | 1012.0 |
| 20260507090046 | 66 | 86 | 5.0 | 8.0 | 0.00 | 0.00 | 0.00 | 67 | 1011.9 |
| 20260507085542 | 64 | 96 | 1.0 | 8.0 | 0.00 | 0.00 | 0.00 | 71 | 1012.2 |
| 20260507085042 | 64 | 325 | 4.0 | 9.0 | 0.00 | 0.00 | 0.00 | 70 | 1012.1 |
| 20260507084557 | 65 | 87 | 7.0 | 10.0 | 0.00 | 0.00 | 0.00 | 72 | 1011.9 |
| 20260507084043 | 64 | 81 | 2.0 | 10.0 | 0.00 | 0.00 | 0.00 | 72 | 1012.0 |
| 20260507083542 | 64 | 123 | 6.0 | 9.0 | 0.00 | 0.00 | 0.00 | 73 | 1011.9 |
| 20260507083042 | 65 | 302 | 1.0 | 9.0 | 0.00 | 0.00 | 0.00 | 71 | 1011.8 |
| 20260507082817 | 64 | 34 | 2.0 | 14.0 | 0.00 | 0.00 | 0.00 | 72 | 1011.7 |
| 20260507082044 | 63 | 44 | 4.0 | 14.0 | 0.00 | 0.00 | 0.00 | 73 | 1011.7 |
| 20260507081542 | 63 | 65 | 5.0 | 10.0 | 0.00 | 0.00 | 0.00 | 72 | 1011.7 |
| 20260507081042 | 63 | 9 | 1.0 | 10.0 | 0.00 | 0.00 | 0.00 | 73 | 1011.7 |
| 20260507080542 | 63 | 39 | 7.0 | 10.0 | 0.00 | 0.00 | 0.00 | 73 | 1011.7 |
| 20260507080044 | 63 | 3 | 2.0 | 9.0 | 0.00 | 0.00 | 0.00 | 73 | 1011.6 |
| 20260507075542 | 62 | 80 | 3.0 | 10.0 | 0.00 | 0.00 | 0.00 | 73 | 1011.8 |
| 20260507075041 | 62 | 98 | 2.0 | 10.0 | 0.00 | 0.00 | 0.00 | 74 | 1011.7 |
| 20260507074543 | 62 | 331 | 6.0 | 9.0 | 0.00 | 0.00 | 0.00 | 75 | 1011.6 |
| 20260507074045 | 62 | 76 | 3.0 | 9.0 | 0.00 | 0.00 | 0.00 | 74 | 1011.8 |
| 20260507073542 | 62 | 257 | 1.0 | 9.0 | 0.00 | 0.00 | 0.00 | 75 | 1011.7 |
| 20260507073043 | 61 | 98 | 3.0 | 9.0 | 0.00 | 0.00 | 0.00 | 76 | 1011.6 |
| 20260507072542 | 62 | 351 | 3.0 | 7.0 | 0.00 | 0.00 | 0.00 | 75 | 1011.7 |
| 20260507072042 | 63 | 133 | 1.0 | 10.0 | 0.00 | 0.00 | 0.00 | 74 | 1011.7 |
| 20260507071542 | 61 | 74 | 2.0 | 10.0 | 0.00 | 0.00 | 0.00 | 76 | 1011.7 |
| 20260507071042 | 60 | 128 | 3.0 | 7.0 | 0.00 | 0.00 | 0.00 | 78 | 1011.6 |
| 20260507070543 | 60 | 43 | 2.0 | 6.0 | 0.00 | 0.00 | 0.00 | 78 | 1011.4 |
| 20260507070042 | 61 | 110 | 1.0 | 4.0 | 0.00 | 0.00 | 0.00 | 78 | 1011.5 |
| 20260507065542 | 60 | 326 | 2.0 | 14.0 | 0.00 | 0.00 | 0.00 | 79 | 1011.4 |
| 20260507065042 | 60 | 87 | 1.0 | 14.0 | 0.00 | 0.00 | 0.00 | 79 | 1011.5 |
| 20260507064541 | 60 | 345 | 1.0 | 11.0 | 0.00 | 0.00 | 0.00 | 80 | 1011.6 |
| 20260507064041 | 59 | 99 | 7.0 | 11.0 | 0.00 | 0.00 | 0.00 | 80 | 1011.2 |
| 20260507063543 | 60 | 75 | 4.0 | 7.0 | 0.00 | 0.00 | 0.00 | 79 | 1011.1 |
| 20260507063045 | 60 | 18 | 1.0 | 9.0 | 0.00 | 0.00 | 0.00 | 79 | 1011.3 |
| 20260507062542 | 59 | 278 | 5.0 | 9.0 | 0.00 | 0.00 | 0.00 | 79 | 1011.0 |
| 20260507062043 | 59 | 55 | 2.0 | 9.0 | 0.00 | 0.00 | 0.00 | 80 | 1010.9 |
| 20260507061541 | 60 | 77 | 4.0 | 10.0 | 0.00 | 0.00 | 0.00 | 80 | 1011.0 |
| 20260507061042 | 59 | 38 | 1.0 | 10.0 | 0.00 | 0.00 | 0.00 | 80 | 1010.9 |
| 20260507060543 | 60 | 42 | 3.0 | 9.0 | 0.00 | 0.00 | 0.00 | 80 | 1010.9 |
| 20260507060042 | 59 | 101 | 4.0 | 8.0 | 0.00 | 0.00 | 0.00 | 80 | 1011.0 |
| 20260507055542 | 59 | 33 | 0.0 | 8.0 | 0.00 | 0.00 | 0.00 | 80 | 1010.9 |
| 20260507055042 | 60 | 112 | 2.0 | 7.0 | 0.00 | 0.00 | 0.00 | 80 | 1011.1 |
| 20260507054542 | 59 | 78 | 0.0 | 9.0 | 0.00 | 0.00 | 0.00 | 80 | 1010.9 |
| 20260507054042 | 59 | 97 | 2.0 | 9.0 | 0.00 | 0.00 | 0.00 | 80 | 1010.7 |
| 20260507053542 | 59 | 87 | 2.0 | 7.0 | 0.00 | 0.00 | 0.00 | 80 | 1010.7 |
| 20260507053043 | 59 | 11 | 1.0 | 4.0 | 0.00 | 0.00 | 0.00 | 80 | 1010.7 |
| 20260507052542 | 59 | 103 | 1.0 | 6.0 | 0.00 | 0.00 | 0.00 | 80 | 1010.5 |
| 20260507052042 | 59 | 236 | 2.0 | 6.0 | 0.00 | 0.00 | 0.00 | 80 | 1010.5 |
| 20260507051542 | 60 | 90 | 2.0 | 3.0 | 0.00 | 0.00 | 0.00 | 79 | 1010.2 |
| 20260507051327 | 59 | 190 | 1.0 | 7.0 | 0.00 | 0.00 | 0.00 | 80 | 1010.3 |
| 20260507050541 | 59 | 329 | 3.0 | 7.0 | 0.00 | 0.00 | 0.00 | 80 | 1010.1 |
| 20260507050042 | 59 | 66 | 3.0 | 9.0 | 0.00 | 0.00 | 0.00 | 80 | 1010.0 |
| 20260507045542 | 59 | 174 | 3.0 | 9.0 | 0.00 | 0.00 | 0.00 | 80 | 1010.0 |
| 20260507045041 | 59 | 106 | 2.0 | 7.0 | 0.00 | 0.00 | 0.00 | 81 | 1009.9 |
| 20260507044820 | 59 | 137 | 2.0 | 7.0 | 0.00 | 0.00 | 0.00 | 81 | 1009.8 |
| 20260507044041 | 59 | 84 | 2.0 | 8.0 | 0.00 | 0.00 | 0.00 | 81 | 1009.8 |
| 20260507043818 | 59 | 78 | 5.0 | 8.0 | 0.00 | 0.00 | 0.00 | 81 | 1009.7 |
| 20260507043325 | 59 | 342 | 2.0 | 3.0 | 0.00 | 0.00 | 0.00 | 81 | 1009.8 |
| 20260507042542 | 59 | 342 | 0.0 | 6.0 | 0.00 | 0.00 | 0.00 | 81 | 1009.7 |
| 20260507042047 | 59 | 92 | 2.0 | 9.0 | 0.00 | 0.00 | 0.00 | 81 | 1009.7 |
| 20260507041544 | 59 | 126 | 2.0 | 10.0 | 0.00 | 0.00 | 0.00 | 81 | 1009.8 |
| 20260507041047 | 59 | 96 | 6.0 | 10.0 | 0.00 | 0.00 | 0.00 | 81 | 1009.6 |
| 20260507040544 | 59 | 73 | 4.0 | 8.0 | 0.00 | 0.00 | 0.00 | 81 | 1009.6 |
| 20260507040340 | 59 | 89 | 1.0 | 6.0 | 0.00 | 0.00 | 0.00 | 81 | 1009.5 |
| 20260507035544 | 59 | 157 | 2.0 | 6.0 | 0.00 | 0.00 | 0.00 | 80 | 1009.5 |
| 20260507035328 | 59 | 138 | 2.0 | 6.0 | 0.00 | 0.00 | 0.00 | 80 | 1009.2 |
| 20260507034544 | 59 | 83 | 1.0 | 4.0 | 0.00 | 0.00 | 0.00 | 80 | 1009.3 |
| 20260507034047 | 59 | 112 | 3.0 | 9.0 | 0.00 | 0.00 | 0.00 | 80 | 1009.1 |
| 20260507033545 | 59 | 270 | 5.0 | 9.0 | 0.00 | 0.00 | 0.00 | 80 | 1009.0 |
| 20260507033047 | 59 | 33 | 0.0 | 7.0 | 0.00 | 0.00 | 0.00 | 80 | 1009.0 |
| 20260507032544 | 59 | 119 | 0.0 | 7.0 | 0.00 | 0.00 | 0.00 | 80 | 1008.7 |
| 20260507032330 | 59 | 142 | 1.0 | 10.0 | 0.00 | 0.00 | 0.00 | 80 | 1008.8 |
| 20260507031544 | 60 | 60 | 3.0 | 13.0 | 0.00 | 0.00 | 0.00 | 79 | 1008.8 |
| 20260507031047 | 60 | 118 | 3.0 | 13.0 | 0.00 | 0.00 | 0.00 | 79 | 1008.7 |
| 20260507030544 | 60 | 63 | 10.0 | 11.0 | 0.00 | 0.00 | 0.00 | 79 | 1008.6 |
| 20260507030059 | 60 | 108 | 5.0 | 7.0 | 0.00 | 0.00 | 0.00 | 79 | 1008.5 |
| 20260507025544 | 60 | 112 | 2.0 | 7.0 | 0.00 | 0.00 | 0.00 | 79 | 1008.7 |
| 20260507025323 | 60 | 21 | 0.0 | 7.0 | 0.00 | 0.00 | 0.00 | 78 | 1008.6 |
| 20260507024544 | 60 | 54 | 2.0 | 7.0 | 0.00 | 0.00 | 0.00 | 78 | 1008.6 |
| 20260507024048 | 60 | 125 | 1.0 | 7.0 | 0.00 | 0.00 | 0.00 | 79 | 1008.6 |
| 20260507023545 | 60 | 51 | 1.0 | 10.0 | 0.00 | 0.00 | 0.00 | 78 | 1008.7 |
| 20260507023047 | 60 | 147 | 0.0 | 10.0 | 0.00 | 0.00 | 0.00 | 78 | 1008.5 |
| 20260507022819 | 60 | 209 | 3.0 | 8.0 | 0.00 | 0.00 | 0.00 | 78 | 1008.4 |
| 20260507022100 | 60 | 58 | 3.0 | 10.0 | 0.00 | 0.00 | 0.00 | 77 | 1008.4 |
| 20260507021545 | 60 | 200 | 1.0 | 10.0 | 0.00 | 0.00 | 0.00 | 77 | 1008.3 |
| 20260507021047 | 60 | 123 | 1.0 | 13.0 | 0.00 | 0.00 | 0.00 | 77 | 1008.4 |
| 20260507020544 | 61 | 15 | 6.0 | 14.0 | 0.00 | 0.00 | 0.00 | 77 | 1008.4 |
| 20260507020338 | 61 | 93 | 1.0 | 15.0 | 0.00 | 0.00 | 0.00 | 77 | 1008.2 |
| 20260507015545 | 61 | 129 | 2.0 | 19.0 | 0.00 | 0.00 | 0.00 | 77 | 1008.1 |
| 20260507015047 | 61 | 75 | 4.0 | 19.0 | 0.00 | 0.00 | 0.00 | 77 | 1008.2 |
| 20260507014544 | 61 | 99 | 9.0 | 17.0 | 0.00 | 0.00 | 0.00 | 76 | 1008.2 |
| 20260507014047 | 61 | 24 | 5.0 | 17.0 | 0.00 | 0.00 | 0.00 | 76 | 1007.7 |
| 20260507013544 | 61 | 79 | 2.0 | 13.0 | 0.00 | 0.00 | 0.00 | 76 | 1008.1 |
| 20260507013048 | 61 | 153 | 2.0 | 16.0 | 0.00 | 0.00 | 0.00 | 76 | 1008.0 |
| 20260507012544 | 61 | 93 | 4.0 | 16.0 | 0.00 | 0.00 | 0.00 | 76 | 1008.0 |
| 20260507012047 | 61 | 58 | 4.0 | 22.0 | 0.00 | 0.00 | 0.00 | 76 | 1007.9 |
| 20260507011544 | 61 | 68 | 1.0 | 22.0 | 0.00 | 0.00 | 0.00 | 76 | 1007.9 |
| 20260507011100 | 61 | 98 | 4.0 | 15.0 | 0.00 | 0.00 | 0.00 | 76 | 1008.1 |
| 20260507010545 | 61 | 112 | 6.0 | 17.0 | 0.00 | 0.00 | 0.00 | 76 | 1007.9 |
| 20260507010100 | 61 | 80 | 4.0 | 17.0 | 0.00 | 0.00 | 0.00 | 76 | 1007.7 |
| 20260507005544 | 61 | 88 | 4.0 | 17.0 | 0.00 | 0.00 | 0.00 | 76 | 1008.0 |
| 20260507005328 | 61 | 111 | 5.0 | 17.0 | 0.00 | 0.00 | 0.00 | 75 | 1007.6 |
| 20260507004544 | 61 | 99 | 6.0 | 17.0 | 0.00 | 0.00 | 0.00 | 75 | 1007.6 |
| 20260507004047 | 61 | 59 | 10.0 | 15.0 | 0.00 | 0.00 | 0.00 | 75 | 1007.7 |
| 20260507003544 | 61 | 100 | 3.0 | 10.0 | 0.00 | 0.00 | 0.00 | 75 | 1007.4 |
| 20260507003046 | 61 | 70 | 9.0 | 10.0 | 0.00 | 0.00 | 0.00 | 75 | 1007.5 |
| 20260507002822 | 61 | 176 | 1.0 | 7.0 | 0.00 | 0.00 | 0.00 | 75 | 1007.7 |